Time;durP1;ratioP1;P1;durP2;ratioP2;P2;SDS_P1;SDS_P2;PMS_P1;PMS_P2;Temp;Humidity;BMP_temperature;BMP_pressure;BME280_temperature;BME280_humidity;BME280_pressure;Samples;Min_cycle;Max_cycle;Signal;HPM_P1;HPM_P2
2022/12/15 00:38:44;;;;;;;0.87;0.87;;;;;;;;;;6209945;23;20146;-78
2022/12/15 00:41:14;;;;;;;0.90;0.90;;;;;;;;;;6210298;23;20458;-77
2022/12/15 00:43:40;;;;;;;0.90;0.90;;;;;;;;;;6209287;22;20620;-79
2022/12/15 00:48:51;;;;;;;0.87;0.87;;;;;;;;;;6210177;23;20151;-78
2022/12/15 00:51:18;;;;;;;1.00;1.00;;;;;;;;;;6210869;23;20154;-78
2022/12/15 01:21:12;;;;;;;1.00;1.00;;;;;;;;;;6209944;23;20593;-77
2022/12/15 01:23:39;;;;;;;0.83;0.83;;;;;;;;;;6210731;22;20167;-77
2022/12/15 01:26:05;;;;;;;1.00;1.00;;;;;;;;;;6211157;23;20205;-79
2022/12/15 01:28:31;;;;;;;1.00;1.00;;;;;;;;;;6211414;23;20520;-79
2022/12/15 01:30:57;;;;;;;0.90;0.90;;;;;;;;;;6211950;23;20175;-79
2022/12/15 01:33:23;;;;;;;0.90;0.90;;;;;;;;;;6210765;22;20499;-80
2022/12/15 01:35:56;;;;;;;1.10;1.10;;;;;;;;;;6210865;23;20159;-78
2022/12/15 01:38:22;;;;;;;0.90;0.90;;;;;;;;;;6210856;23;20163;-78
2022/12/15 01:40:53;;;;;;;0.90;0.90;;;;;;;;;;6211118;23;20151;-80
2022/12/15 01:43:21;;;;;;;0.80;0.80;;;;;;;;;;6210609;22;20175;-78
2022/12/15 01:45:58;;;;;;;0.90;0.90;;;;;;;;;;6211100;23;20151;-79
2022/12/15 01:48:44;;;;;;;0.90;0.90;;;;;;;;;;6211727;23;20155;-79
2022/12/15 01:51:15;;;;;;;0.80;0.80;;;;;;;;;;6211404;23;20472;-78
2022/12/15 01:54:01;;;;;;;0.90;0.90;;;;;;;;;;6210715;22;20242;-78
2022/12/15 01:56:28;;;;;;;0.80;0.80;;;;;;;;;;6211787;23;20174;-78
2022/12/15 01:58:59;;;;;;;0.90;0.90;;;;;;;;;;6211223;23;20151;-78
2022/12/15 02:01:25;;;;;;;0.80;0.80;;;;;;;;;;6211414;23;20144;-78
2022/12/15 02:03:51;;;;;;;1.00;1.00;;;;;;;;;;6210582;22;20221;-78
2022/12/15 02:06:20;;;;;;;0.90;0.90;;;;;;;;;;6211280;23;20148;-80
2022/12/15 02:08:47;;;;;;;1.00;1.00;;;;;;;;;;6211103;23;20167;-79
2022/12/15 02:11:22;;;;;;;0.90;0.90;;;;;;;;;;6211102;23;20541;-78
2022/12/15 02:14:03;;;;;;;0.90;0.90;;;;;;;;;;6211449;22;20262;-80
2022/12/15 02:16:41;;;;;;;0.90;0.90;;;;;;;;;;6210889;23;20182;-79
2022/12/15 02:19:34;;;;;;;0.90;0.90;;;;;;;;;;6212278;23;20212;-80
2022/12/15 02:22:18;;;;;;;1.00;1.00;;;;;;;;;;6212340;23;20187;-79
2022/12/15 02:24:55;;;;;;;0.90;0.90;;;;;;;;;;6211597;22;20182;-79
2022/12/15 02:27:40;;;;;;;0.90;0.90;;;;;;;;;;6211983;23;20146;-78
2022/12/15 02:30:29;;;;;;;0.97;0.97;;;;;;;;;;6212098;23;20484;-80
2022/12/15 02:33:02;;;;;;;0.90;0.90;;;;;;;;;;6212168;22;20175;-80
2022/12/15 02:35:44;;;;;;;1.00;1.00;;;;;;;;;;6212848;23;20175;-79
2022/12/15 02:38:10;;;;;;;0.97;0.97;;;;;;;;;;6213381;23;20274;-80
2022/12/15 02:40:36;;;;;;;0.90;0.90;;;;;;;;;;6214177;23;20147;-80
2022/12/15 02:43:04;;;;;;;0.90;0.90;;;;;;;;;;6213727;22;20546;-81
2022/12/15 02:45:45;;;;;;;0.80;0.80;;;;;;;;;;6213994;23;20151;-81
2022/12/15 02:48:20;;;;;;;0.90;0.90;;;;;;;;;;6218065;23;20199;-83
2022/12/15 02:50:50;;;;;;;0.90;0.90;;;;;;;;;;6234096;23;20175;-81
2022/12/15 02:53:28;;;;;;;0.90;0.90;;;;;;;;;;6234889;22;20182;-80
2022/12/15 02:55:54;;;;;;;0.90;0.90;;;;;;;;;;6217477;23;20167;-79
2022/12/15 02:58:32;;;;;;;0.80;0.80;;;;;;;;;;6212591;23;20630;-78
2022/12/15 03:01:03;;;;;;;1.00;1.00;;;;;;;;;;6212570;23;20242;-78
2022/12/15 03:03:30;;;;;;;0.90;0.90;;;;;;;;;;6211253;22;20167;-79
2022/12/15 03:05:56;;;;;;;1.00;1.00;;;;;;;;;;6212281;23;20617;-78
2022/12/15 03:08:22;;;;;;;0.90;0.90;;;;;;;;;;6212903;23;20156;-78
2022/12/15 03:10:53;;;;;;;0.90;0.90;;;;;;;;;;6213375;23;20233;-79
2022/12/15 03:13:19;;;;;;;0.80;0.80;;;;;;;;;;6212415;22;20253;-79
2022/12/15 03:15:44;;;;;;;0.80;0.80;;;;;;;;;;6212720;23;20151;-78
2022/12/15 03:18:11;;;;;;;0.90;0.90;;;;;;;;;;6211670;23;20191;-78
2022/12/15 03:20:37;;;;;;;0.90;0.90;;;;;;;;;;6212395;23;20155;-78
2022/12/15 03:23:03;;;;;;;1.00;1.00;;;;;;;;;;6211141;22;20167;-79
2022/12/15 03:25:29;;;;;;;0.90;0.90;;;;;;;;;;6211916;23;20147;-79
2022/12/15 03:27:55;;;;;;;0.80;0.80;;;;;;;;;;6210765;23;20475;-78
2022/12/15 03:30:21;;;;;;;0.90;0.90;;;;;;;;;;6213893;23;20598;-79
2022/12/15 03:32:47;;;;;;;0.90;0.90;;;;;;;;;;6212431;22;20182;-79
2022/12/15 03:35:13;;;;;;;0.90;0.90;;;;;;;;;;6212960;23;20171;-80
2022/12/15 03:37:39;;;;;;;1.00;1.00;;;;;;;;;;6220440;23;20179;-79
2022/12/15 03:40:06;;;;;;;0.90;0.90;;;;;;;;;;6222180;23;20189;-80
2022/12/15 03:42:47;;;;;;;0.87;0.87;;;;;;;;;;6232085;22;20155;-80
2022/12/15 03:45:13;;;;;;;0.90;0.90;;;;;;;;;;6231646;23;20140;-79
2022/12/15 03:47:43;;;;;;;0.80;0.80;;;;;;;;;;6233574;23;20167;-80
2022/12/15 03:50:09;;;;;;;0.80;0.80;;;;;;;;;;6217594;23;20179;-80
2022/12/15 03:52:35;;;;;;;0.80;0.80;;;;;;;;;;6211613;22;20155;-80
2022/12/15 03:55:02;;;;;;;0.80;0.80;;;;;;;;;;6212562;23;20620;-79
2022/12/15 03:57:28;;;;;;;0.80;0.80;;;;;;;;;;6212751;23;20599;-79
2022/12/15 03:59:54;;;;;;;0.90;0.90;;;;;;;;;;6212624;23;20154;-80
2022/12/15 04:02:20;;;;;;;0.80;0.80;;;;;;;;;;6212307;23;20155;-79
2022/12/15 04:04:47;;;;;;;0.90;0.90;;;;;;;;;;6212440;22;20201;-80
2022/12/15 04:07:13;;;;;;;0.90;0.90;;;;;;;;;;6212542;23;20151;-79
2022/12/15 04:09:39;;;;;;;0.90;0.90;;;;;;;;;;6213317;23;20153;-80
2022/12/15 04:12:05;;;;;;;0.90;0.90;;;;;;;;;;6212607;23;20157;-80
2022/12/15 04:14:31;;;;;;;0.80;0.80;;;;;;;;;;6212243;22;20629;-79
2022/12/15 04:16:57;;;;;;;0.90;0.90;;;;;;;;;;6211864;23;20221;-80
2022/12/15 04:22:08;;;;;;;0.80;0.80;;;;;;;;;;6211300;23;20273;-80
2022/12/15 05:33:19;;;;;;;0.90;0.90;;;;;;;;;;6210123;22;20231;-79
2022/12/15 05:35:45;;;;;;;0.90;0.90;;;;;;;;;;6211325;23;20270;-79
2022/12/15 05:38:11;;;;;;;1.00;1.00;;;;;;;;;;6211329;23;20190;-80
2022/12/15 05:40:37;;;;;;;0.90;0.90;;;;;;;;;;6211909;23;20158;-78
2022/12/15 05:43:03;;;;;;;0.90;0.90;;;;;;;;;;6211744;22;20239;-81
2022/12/15 05:45:29;;;;;;;1.00;1.00;;;;;;;;;;6211599;23;20186;-78
2022/12/15 05:47:55;;;;;;;1.00;1.00;;;;;;;;;;6212184;23;20585;-80
2022/12/15 05:50:21;;;;;;;0.90;0.90;;;;;;;;;;6211028;23;20155;-78
2022/12/15 05:52:50;;;;;;;0.90;0.90;;;;;;;;;;6211129;22;20201;-80
2022/12/15 05:55:17;;;;;;;0.93;0.93;;;;;;;;;;6211798;23;20175;-80
2022/12/15 05:57:43;;;;;;;0.80;0.80;;;;;;;;;;6214652;23;20506;-81
2022/12/15 06:00:09;;;;;;;0.80;0.80;;;;;;;;;;6211940;23;20155;-78
2022/12/15 06:02:35;;;;;;;0.90;0.90;;;;;;;;;;6210749;22;20529;-78
2022/12/15 06:05:01;;;;;;;0.90;0.90;;;;;;;;;;6211585;23;20147;-79
2022/12/15 06:07:27;;;;;;;0.83;0.83;;;;;;;;;;6212034;23;20543;-81
2022/12/15 06:09:53;;;;;;;0.87;0.87;;;;;;;;;;6211980;23;20161;-80
2022/12/15 06:12:19;;;;;;;0.90;0.90;;;;;;;;;;6210852;23;20158;-80
2022/12/15 06:14:45;;;;;;;0.80;0.80;;;;;;;;;;6211839;22;20179;-79
2022/12/15 06:17:12;;;;;;;0.83;0.83;;;;;;;;;;6211143;23;20195;-80
2022/12/15 06:19:38;;;;;;;0.90;0.90;;;;;;;;;;6211103;23;20545;-76
2022/12/15 06:22:04;;;;;;;0.60;0.60;;;;;;;;;;6209518;23;20859;-80
2022/12/15 06:24:30;;;;;;;0.90;0.90;;;;;;;;;;6207441;22;20179;-81
2022/12/15 06:26:56;;;;;;;0.90;0.90;;;;;;;;;;6204540;23;20354;-78
2022/12/15 06:29:22;;;;;;;1.00;1.00;;;;;;;;;;6206720;23;20508;-79
2022/12/15 06:31:48;;;;;;;0.80;0.80;;;;;;;;;;6208077;23;20191;-78
2022/12/15 06:34:15;;;;;;;0.90;0.90;;;;;;;;;;6205653;22;20183;-78
2022/12/15 06:36:41;;;;;;;0.90;0.90;;;;;;;;;;6208540;23;20252;-78
2022/12/15 06:39:10;;;;;;;0.90;0.90;;;;;;;;;;6208449;23;20681;-78
2022/12/15 06:41:36;;;;;;;0.90;0.90;;;;;;;;;;6211703;23;20151;-81
2022/12/15 06:44:02;;;;;;;1.00;1.00;;;;;;;;;;6210581;22;20164;-80
2022/12/15 06:46:29;;;;;;;0.90;0.90;;;;;;;;;;6211649;23;20185;-80
2022/12/15 06:48:55;;;;;;;1.00;1.00;;;;;;;;;;6231610;22;20224;-81
2022/12/15 06:51:21;;;;;;;0.90;0.90;;;;;;;;;;6235242;22;20215;-80
2022/12/15 06:53:47;;;;;;;0.80;0.80;;;;;;;;;;6230384;22;20193;-79
2022/12/15 06:56:19;;;;;;;0.90;0.90;;;;;;;;;;6212030;23;20155;-78
2022/12/15 06:58:48;;;;;;;1.00;1.00;;;;;;;;;;6212731;23;20147;-79
2022/12/15 07:01:15;;;;;;;0.80;0.80;;;;;;;;;;6211819;23;20515;-78
2022/12/15 07:03:41;;;;;;;0.87;0.87;;;;;;;;;;6211225;22;20224;-80
2022/12/15 07:06:08;;;;;;;0.90;0.90;;;;;;;;;;6213188;23;20159;-79
2022/12/15 07:08:34;;;;;;;0.90;0.90;;;;;;;;;;6212694;23;20148;-79
2022/12/15 07:11:05;;;;;;;1.00;1.00;;;;;;;;;;6213494;23;20162;-79
2022/12/15 07:13:31;;;;;;;0.93;0.93;;;;;;;;;;6212483;22;20167;-78
2022/12/15 07:16:00;;;;;;;0.90;0.90;;;;;;;;;;6212925;23;20526;-79
2022/12/15 07:18:26;;;;;;;0.90;0.90;;;;;;;;;;6212918;23;20195;-79
2022/12/15 07:20:52;;;;;;;0.80;0.80;;;;;;;;;;6212904;23;20588;-80
2022/12/15 07:23:18;;;;;;;0.90;0.90;;;;;;;;;;6212337;22;20182;-79
2022/12/15 07:25:44;;;;;;;0.90;0.90;;;;;;;;;;6212250;23;20155;-79
2022/12/15 07:28:10;;;;;;;0.90;0.90;;;;;;;;;;6212362;23;20183;-79
2022/12/15 07:30:36;;;;;;;0.90;0.90;;;;;;;;;;6212871;23;20205;-78
2022/12/15 07:33:03;;;;;;;1.00;1.00;;;;;;;;;;6212620;22;20177;-80
2022/12/15 07:35:29;;;;;;;0.90;0.90;;;;;;;;;;6212662;23;20539;-78
2022/12/15 07:37:55;;;;;;;0.90;0.90;;;;;;;;;;6212818;23;20501;-79
2022/12/15 07:40:21;;;;;;;1.00;1.00;;;;;;;;;;6213154;23;20173;-78
2022/12/15 07:42:47;;;;;;;1.00;1.00;;;;;;;;;;6214852;22;20175;-79
2022/12/15 07:45:13;;;;;;;0.80;0.80;;;;;;;;;;6213431;23;20530;-78
2022/12/15 07:47:40;;;;;;;0.90;0.90;;;;;;;;;;6212676;23;20151;-79
2022/12/15 07:50:07;;;;;;;0.80;0.80;;;;;;;;;;6212683;23;20190;-79
2022/12/15 07:52:33;;;;;;;0.80;0.80;;;;;;;;;;6211908;22;20148;-80
2022/12/15 07:54:59;;;;;;;0.90;0.90;;;;;;;;;;6213923;23;20147;-80
2022/12/15 07:57:25;;;;;;;0.90;0.90;;;;;;;;;;6212735;23;20279;-78
2022/12/15 07:59:51;;;;;;;0.90;0.90;;;;;;;;;;6213201;23;20152;-80
2022/12/15 08:02:17;;;;;;;0.90;0.90;;;;;;;;;;6212997;23;20163;-80
2022/12/15 08:04:43;;;;;;;0.80;0.80;;;;;;;;;;6215542;22;20171;-78
2022/12/15 08:07:10;;;;;;;0.90;0.90;;;;;;;;;;6222584;23;20151;-78
2022/12/15 08:09:36;;;;;;;0.83;0.83;;;;;;;;;;6224267;23;20159;-81
2022/12/15 08:12:02;;;;;;;0.80;0.80;;;;;;;;;;6232113;22;20164;-82
2022/12/15 08:14:28;;;;;;;0.90;0.90;;;;;;;;;;6217906;22;20179;-78
2022/12/15 08:16:54;;;;;;;0.90;0.90;;;;;;;;;;6212500;23;20202;-78
2022/12/15 08:19:20;;;;;;;0.90;0.90;;;;;;;;;;6213158;23;20589;-79
2022/12/15 08:21:47;;;;;;;0.90;0.90;;;;;;;;;;6213685;23;20148;-78
2022/12/15 08:24:13;;;;;;;0.80;0.80;;;;;;;;;;6213317;22;20231;-79
2022/12/15 08:26:40;;;;;;;0.80;0.80;;;;;;;;;;6213310;23;20200;-78
2022/12/15 08:29:07;;;;;;;1.00;1.00;;;;;;;;;;6213629;23;20230;-79
2022/12/15 08:31:33;;;;;;;0.90;0.90;;;;;;;;;;6213675;23;20151;-78
2022/12/15 08:34:00;;;;;;;0.90;0.90;;;;;;;;;;6213866;22;20175;-78
2022/12/15 08:36:26;;;;;;;0.70;0.70;;;;;;;;;;6212798;23;20180;-79
2022/12/15 08:38:52;;;;;;;0.90;0.90;;;;;;;;;;6212463;23;20613;-80
2022/12/15 08:41:22;;;;;;;0.90;0.90;;;;;;;;;;6212562;23;20239;-79
2022/12/15 08:43:49;;;;;;;0.90;0.90;;;;;;;;;;6211999;22;20175;-79
2022/12/15 08:46:15;;;;;;;0.90;0.90;;;;;;;;;;6212452;23;20153;-79
2022/12/15 08:48:41;;;;;;;1.00;1.00;;;;;;;;;;6212462;23;20211;-79
2022/12/15 08:51:08;;;;;;;0.80;0.80;;;;;;;;;;6212787;23;20215;-79
2022/12/15 08:53:34;;;;;;;0.90;0.90;;;;;;;;;;6211835;22;20483;-79
2022/12/15 08:56:04;;;;;;;1.00;1.00;;;;;;;;;;6213161;23;20177;-78
2022/12/15 08:58:30;;;;;;;0.90;0.90;;;;;;;;;;6213676;23;20191;-79
2022/12/15 09:01:20;;;;;;;0.90;0.90;;;;;;;;;;6213820;23;20183;-79
2022/12/15 09:03:46;;;;;;;1.00;1.00;;;;;;;;;;6215799;22;20175;-79
2022/12/15 09:06:17;;;;;;;1.00;1.00;;;;;;;;;;6212412;23;20231;-79
2022/12/15 09:08:43;;;;;;;0.97;0.97;;;;;;;;;;6212864;23;20242;-79
2022/12/15 09:11:09;;;;;;;0.90;0.90;;;;;;;;;;6213393;23;20151;-78
2022/12/15 09:13:35;;;;;;;0.90;0.90;;;;;;;;;;6212828;22;20197;-80
2022/12/15 09:16:04;;;;;;;1.00;1.00;;;;;;;;;;6212886;23;20250;-79
2022/12/15 09:18:30;;;;;;;1.00;1.00;;;;;;;;;;6212814;23;20207;-80
2022/12/15 09:21:00;;;;;;;0.90;0.90;;;;;;;;;;6214065;23;20159;-79
2022/12/15 09:23:26;;;;;;;0.90;0.90;;;;;;;;;;6213594;22;20167;-79
2022/12/15 09:25:58;;;;;;;0.90;0.90;;;;;;;;;;6212819;23;20148;-80
2022/12/15 09:28:25;;;;;;;0.80;0.80;;;;;;;;;;6213726;23;20216;-81
2022/12/15 09:30:50;;;;;;;0.80;0.80;;;;;;;;;;6213717;23;20560;-80
2022/12/15 09:33:16;;;;;;;0.80;0.80;;;;;;;;;;6213235;22;20167;-80
2022/12/15 09:35:49;;;;;;;0.80;0.80;;;;;;;;;;6212735;23;20439;-79
2022/12/15 09:38:15;;;;;;;0.80;0.80;;;;;;;;;;6213109;23;20212;-79
2022/12/15 09:40:41;;;;;;;0.73;0.73;;;;;;;;;;6212726;23;20151;-81
2022/12/15 09:43:10;;;;;;;0.90;0.90;;;;;;;;;;6212488;22;20250;-78
2022/12/15 09:45:42;;;;;;;0.70;0.70;;;;;;;;;;6212793;23;20147;-80
2022/12/15 09:48:13;;;;;;;0.73;0.73;;;;;;;;;;6213508;23;20155;-80
2022/12/15 09:50:41;;;;;;;0.77;0.77;;;;;;;;;;6213619;23;20155;-78
2022/12/15 09:53:12;;;;;;;0.90;0.90;;;;;;;;;;6213694;22;20179;-80
2022/12/15 09:55:38;;;;;;;0.80;0.80;;;;;;;;;;6213220;23;20484;-79
2022/12/15 09:58:04;;;;;;;0.70;0.70;;;;;;;;;;6211826;23;20262;-80
2022/12/15 10:00:32;;;;;;;0.80;0.80;;;;;;;;;;6213348;23;20147;-79
2022/12/15 10:03:17;;;;;;;0.90;0.90;;;;;;;;;;6213541;22;20175;-79
2022/12/15 10:05:55;;;;;;;0.80;0.80;;;;;;;;;;6213403;23;20239;-80
2022/12/15 10:08:22;;;;;;;0.90;0.90;;;;;;;;;;6213651;23;20151;-81
2022/12/15 10:10:48;;;;;;;0.90;0.90;;;;;;;;;;6215260;23;20569;-79
2022/12/15 10:13:19;;;;;;;0.70;0.70;;;;;;;;;;6216112;22;20171;-80
2022/12/15 10:15:49;;;;;;;0.80;0.80;;;;;;;;;;6218689;23;20233;-79
2022/12/15 10:18:15;;;;;;;0.70;0.70;;;;;;;;;;6216398;23;20179;-79
2022/12/15 10:20:41;;;;;;;0.80;0.80;;;;;;;;;;6216442;23;20165;-81
2022/12/15 10:23:14;;;;;;;0.80;0.80;;;;;;;;;;6215022;22;20179;-79
2022/12/15 10:25:42;;;;;;;0.77;0.77;;;;;;;;;;6215075;23;20150;-78
2022/12/15 10:28:17;;;;;;;0.80;0.80;;;;;;;;;;6215646;23;20148;-78
2022/12/15 10:31:03;;;;;;;0.80;0.80;;;;;;;;;;6216244;23;20147;-78
2022/12/15 10:33:36;;;;;;;0.80;0.80;;;;;;;;;;6228903;22;20179;-79
2022/12/15 10:36:06;;;;;;;0.90;0.90;;;;;;;;;;6213243;23;20175;-80
2022/12/15 10:38:32;;;;;;;0.90;0.90;;;;;;;;;;6215948;23;20179;-79
2022/12/15 10:41:00;;;;;;;0.90;0.90;;;;;;;;;;6214528;23;20961;-80
2022/12/15 10:43:29;;;;;;;0.90;0.90;;;;;;;;;;6215010;22;20182;-79
2022/12/15 10:46:02;;;;;;;0.90;0.90;;;;;;;;;;6215690;23;20160;-78
2022/12/15 10:48:28;;;;;;;0.90;0.90;;;;;;;;;;6215056;23;20151;-82
2022/12/15 10:51:13;;;;;;;0.90;0.90;;;;;;;;;;6213719;23;20262;-80
2022/12/15 10:53:40;;;;;;;1.03;1.03;;;;;;;;;;6213864;22;20179;-80
2022/12/15 10:56:08;;;;;;;0.80;0.80;;;;;;;;;;6230714;23;20189;-80
2022/12/15 10:58:45;;;;;;;0.90;0.90;;;;;;;;;;6232222;22;20198;-82
2022/12/15 11:01:19;;;;;;;0.90;0.90;;;;;;;;;;6232692;23;20126;-80
2022/12/15 11:03:45;;;;;;;0.90;0.90;;;;;;;;;;6213309;22;20281;-79
2022/12/15 11:06:16;;;;;;;0.90;0.90;;;;;;;;;;6213537;23;20152;-79
2022/12/15 11:08:43;;;;;;;0.90;0.90;;;;;;;;;;6214369;23;20155;-80
2022/12/15 11:14:44;;;;;;;1.00;1.00;;;;;;;;;;6248504;22;20184;-80
2022/12/15 11:17:13;;;;;;;1.00;1.00;;;;;;;;;;6225217;22;20189;-79
2022/12/15 11:19:58;;;;;;;0.90;0.90;;;;;;;;;;6213207;23;20151;-79
2022/12/15 11:22:46;;;;;;;0.90;0.90;;;;;;;;;;6212521;22;20219;-79
2022/12/15 11:25:12;;;;;;;0.90;0.90;;;;;;;;;;6213595;23;20147;-79
2022/12/15 11:27:42;;;;;;;0.80;0.80;;;;;;;;;;6213321;23;20185;-80
2022/12/15 11:30:16;;;;;;;0.80;0.80;;;;;;;;;;6214327;23;20491;-81
2022/12/15 11:32:43;;;;;;;0.80;0.80;;;;;;;;;;6212997;22;20211;-81
2022/12/15 11:35:19;;;;;;;0.80;0.80;;;;;;;;;;6213400;23;20609;-79
2022/12/15 11:37:49;;;;;;;0.90;0.90;;;;;;;;;;6213530;23;20551;-79
2022/12/15 11:40:32;;;;;;;0.80;0.80;;;;;;;;;;6213087;23;20487;-80
2022/12/15 11:43:10;;;;;;;0.90;0.90;;;;;;;;;;6212399;22;20175;-79
2022/12/15 11:46:01;;;;;;;0.90;0.90;;;;;;;;;;6213062;23;20139;-81
2022/12/15 11:48:39;;;;;;;0.90;0.90;;;;;;;;;;6213567;23;20144;-81
2022/12/15 11:51:06;;;;;;;1.00;1.00;;;;;;;;;;6212951;23;20185;-79
2022/12/15 11:53:43;;;;;;;1.00;1.00;;;;;;;;;;6212997;22;20254;-80
2022/12/15 11:56:30;;;;;;;0.80;0.80;;;;;;;;;;6213786;23;20143;-79
2022/12/15 11:59:04;;;;;;;0.90;0.90;;;;;;;;;;6213721;23;20163;-80
2022/12/15 12:01:45;;;;;;;0.90;0.90;;;;;;;;;;6233296;23;20163;-80
2022/12/15 12:04:20;;;;;;;0.90;0.90;;;;;;;;;;6232867;22;20230;-83
2022/12/15 12:07:02;;;;;;;0.90;0.90;;;;;;;;;;6230036;22;20155;-82
2022/12/15 12:09:36;;;;;;;0.90;0.90;;;;;;;;;;6231322;23;20163;-83
2022/12/15 12:12:26;;;;;;;0.90;0.90;;;;;;;;;;6234077;22;20155;-82
2022/12/15 12:15:03;;;;;;;0.70;0.70;;;;;;;;;;6231833;23;20151;-80
2022/12/15 12:17:41;;;;;;;0.90;0.90;;;;;;;;;;6214602;23;20193;-80
2022/12/15 12:20:27;;;;;;;0.87;0.87;;;;;;;;;;6215335;23;20166;-79
2022/12/15 12:23:03;;;;;;;0.90;0.90;;;;;;;;;;6212467;22;20246;-81
2022/12/15 12:25:31;;;;;;;0.90;0.90;;;;;;;;;;6214387;23;20193;-79
2022/12/15 12:28:12;;;;;;;0.80;0.80;;;;;;;;;;6216009;23;20166;-80
2022/12/15 12:30:43;;;;;;;0.90;0.90;;;;;;;;;;6214469;23;20139;-79
2022/12/15 12:33:24;;;;;;;0.90;0.90;;;;;;;;;;6213529;22;20518;-80
2022/12/15 12:35:56;;;;;;;0.90;0.90;;;;;;;;;;6212250;23;20481;-79
2022/12/15 12:38:25;;;;;;;0.90;0.90;;;;;;;;;;6212893;23;20187;-79
2022/12/15 12:41:00;;;;;;;0.80;0.80;;;;;;;;;;6211962;23;20205;-80
2022/12/15 12:43:31;;;;;;;0.90;0.90;;;;;;;;;;6212443;22;20204;-79
2022/12/15 12:46:00;;;;;;;0.80;0.80;;;;;;;;;;6212194;23;20167;-78
2022/12/15 12:48:37;;;;;;;0.90;0.90;;;;;;;;;;6211036;23;20151;-82
2022/12/15 12:51:12;;;;;;;0.90;0.90;;;;;;;;;;6211747;23;20204;-79
2022/12/15 12:53:38;;;;;;;0.90;0.90;;;;;;;;;;6210247;22;20625;-80
2022/12/15 12:56:05;;;;;;;0.80;0.80;;;;;;;;;;6211720;23;20152;-80
2022/12/15 12:58:31;;;;;;;0.90;0.90;;;;;;;;;;6210811;23;20505;-81
2022/12/15 13:01:26;;;;;;;0.90;0.90;;;;;;;;;;6211914;23;20159;-79
2022/12/15 13:04:22;;;;;;;0.80;0.80;;;;;;;;;;6217342;22;20182;-78
2022/12/15 13:06:48;;;;;;;0.90;0.90;;;;;;;;;;6239566;23;20150;-78
2022/12/15 13:09:16;;;;;;;0.90;0.90;;;;;;;;;;6210900;23;20248;-78
2022/12/15 13:11:51;;;;;;;1.00;1.00;;;;;;;;;;6210199;23;20639;-79
2022/12/15 13:14:20;;;;;;;0.90;0.90;;;;;;;;;;6209935;22;20186;-78
2022/12/15 13:16:47;;;;;;;0.90;0.90;;;;;;;;;;6210410;23;20175;-78
2022/12/15 13:19:13;;;;;;;0.90;0.90;;;;;;;;;;6210623;23;20157;-79
2022/12/15 13:21:42;;;;;;;0.90;0.90;;;;;;;;;;6210398;23;20153;-79
2022/12/15 13:24:26;;;;;;;0.90;0.90;;;;;;;;;;6210005;22;20182;-80
2022/12/15 13:26:52;;;;;;;0.87;0.87;;;;;;;;;;6210859;23;20155;-79
2022/12/15 13:29:22;;;;;;;0.90;0.90;;;;;;;;;;6210395;23;20634;-78
2022/12/15 13:31:49;;;;;;;0.90;0.90;;;;;;;;;;6208503;23;20181;-78
2022/12/15 13:34:17;;;;;;;0.90;0.90;;;;;;;;;;6210187;22;20168;-79
2022/12/15 13:36:47;;;;;;;1.00;1.00;;;;;;;;;;6211151;23;20191;-78
2022/12/15 13:39:16;;;;;;;0.90;0.90;;;;;;;;;;6210948;23;20146;-78
2022/12/15 13:41:44;;;;;;;1.00;1.00;;;;;;;;;;6210125;23;20155;-80
2022/12/15 13:44:16;;;;;;;0.90;0.90;;;;;;;;;;6209856;22;20175;-80
2022/12/15 13:46:45;;;;;;;0.90;0.90;;;;;;;;;;6210063;23;20161;-79
2022/12/15 13:49:18;;;;;;;0.90;0.90;;;;;;;;;;6208091;23;20147;-78
2022/12/15 13:51:44;;;;;;;0.80;0.80;;;;;;;;;;6209819;23;20147;-79
2022/12/15 13:54:24;;;;;;;0.90;0.90;;;;;;;;;;6209664;22;20190;-78
2022/12/15 13:57:19;;;;;;;0.90;0.90;;;;;;;;;;6210042;23;20179;-78
2022/12/15 13:59:50;;;;;;;1.00;1.00;;;;;;;;;;6216286;23;20155;-79
2022/12/15 14:02:26;;;;;;;0.90;0.90;;;;;;;;;;6209471;23;20162;-80
2022/12/15 14:05:11;;;;;;;0.90;0.90;;;;;;;;;;6210127;23;20575;-79
2022/12/15 14:07:43;;;;;;;0.90;0.90;;;;;;;;;;6209792;23;20165;-80
2022/12/15 14:10:16;;;;;;;0.93;0.93;;;;;;;;;;6209978;23;20151;-79
2022/12/15 14:12:43;;;;;;;0.90;0.90;;;;;;;;;;6209967;22;20227;-78
2022/12/15 14:15:16;;;;;;;0.90;0.90;;;;;;;;;;6210812;23;20589;-79
2022/12/15 14:17:46;;;;;;;0.90;0.90;;;;;;;;;;6211167;23;20183;-79
2022/12/15 14:20:23;;;;;;;1.10;1.10;;;;;;;;;;6210503;23;20234;-78
2022/12/15 14:22:51;;;;;;;0.90;0.90;;;;;;;;;;6211137;22;20170;-78
2022/12/15 14:25:20;;;;;;;0.90;0.90;;;;;;;;;;6211510;23;20158;-77
2022/12/15 14:27:46;;;;;;;0.90;0.90;;;;;;;;;;6212303;23;20475;-81
2022/12/15 14:30:21;;;;;;;0.90;0.90;;;;;;;;;;6214463;23;20632;-80
2022/12/15 14:32:49;;;;;;;0.83;0.83;;;;;;;;;;6214182;22;20181;-79
2022/12/15 14:35:21;;;;;;;0.90;0.90;;;;;;;;;;6213189;23;20233;-79
2022/12/15 14:37:47;;;;;;;0.80;0.80;;;;;;;;;;6210858;23;20182;-80
2022/12/15 14:40:17;;;;;;;1.00;1.00;;;;;;;;;;6212327;23;20507;-80
2022/12/15 14:42:43;;;;;;;1.00;1.00;;;;;;;;;;6211641;22;20167;-79
2022/12/15 14:45:28;;;;;;;0.90;0.90;;;;;;;;;;6212434;23;20212;-79
2022/12/15 14:47:56;;;;;;;0.97;0.97;;;;;;;;;;6211979;23;20147;-80
2022/12/15 14:50:23;;;;;;;0.80;0.80;;;;;;;;;;6213154;23;20177;-80
2022/12/15 14:52:53;;;;;;;0.90;0.90;;;;;;;;;;6211606;22;20179;-78
2022/12/15 14:55:22;;;;;;;1.00;1.00;;;;;;;;;;6212984;23;20471;-79
2022/12/15 14:57:51;;;;;;;0.90;0.90;;;;;;;;;;6213266;23;20183;-80
2022/12/15 15:00:26;;;;;;;0.90;0.90;;;;;;;;;;6213839;23;20508;-80
2022/12/15 15:03:27;;;;;;;0.90;0.90;;;;;;;;;;6211800;22;20182;-80
2022/12/15 15:05:55;;;;;;;0.80;0.80;;;;;;;;;;6244484;23;20153;-79
2022/12/15 15:08:27;;;;;;;0.90;0.90;;;;;;;;;;6217144;22;20579;-76
2022/12/15 15:10:54;;;;;;;0.83;0.83;;;;;;;;;;6214501;23;20525;-78
2022/12/15 15:13:22;;;;;;;0.90;0.90;;;;;;;;;;6213163;22;20175;-77
2022/12/15 15:15:52;;;;;;;1.00;1.00;;;;;;;;;;6212561;23;20166;-75
2022/12/15 15:18:22;;;;;;;0.90;0.90;;;;;;;;;;6214187;23;20715;-74
2022/12/15 15:20:51;;;;;;;0.90;0.90;;;;;;;;;;6213166;23;20154;-75
2022/12/15 15:23:18;;;;;;;0.90;0.90;;;;;;;;;;6209405;22;20175;-74
2022/12/15 15:25:47;;;;;;;0.90;0.90;;;;;;;;;;6209772;23;20148;-73
2022/12/15 15:28:20;;;;;;;0.90;0.90;;;;;;;;;;6209747;23;20212;-75
2022/12/15 15:30:45;;;;;;;0.80;0.80;;;;;;;;;;6209776;23;20183;-73
2022/12/15 15:33:12;;;;;;;0.90;0.90;;;;;;;;;;6209297;22;20265;-74
2022/12/15 15:35:38;;;;;;;0.90;0.90;;;;;;;;;;6210076;23;20253;-73
2022/12/15 15:38:16;;;;;;;0.90;0.90;;;;;;;;;;6209928;23;20179;-73
2022/12/15 15:40:42;;;;;;;0.90;0.90;;;;;;;;;;6209753;23;20627;-74
2022/12/15 15:43:12;;;;;;;0.90;0.90;;;;;;;;;;6209600;22;20554;-74
2022/12/15 15:45:39;;;;;;;0.90;0.90;;;;;;;;;;6209967;23;20163;-74
2022/12/15 15:48:05;;;;;;;1.00;1.00;;;;;;;;;;6210279;23;20529;-73
2022/12/15 15:50:31;;;;;;;0.87;0.87;;;;;;;;;;6210215;23;20154;-74
2022/12/15 15:52:57;;;;;;;0.90;0.90;;;;;;;;;;6209092;22;20250;-74
2022/12/15 15:55:30;;;;;;;0.90;0.90;;;;;;;;;;6209650;23;20535;-74
2022/12/15 15:57:57;;;;;;;0.90;0.90;;;;;;;;;;6209927;23;20179;-74
2022/12/15 16:00:24;;;;;;;1.00;1.00;;;;;;;;;;6210091;23;20155;-74
2022/12/15 16:02:51;;;;;;;0.90;0.90;;;;;;;;;;6209208;22;20591;-75
2022/12/15 16:05:19;;;;;;;0.90;0.90;;;;;;;;;;6210179;23;20157;-75
2022/12/15 16:07:45;;;;;;;0.90;0.90;;;;;;;;;;6210005;23;20167;-76
2022/12/15 16:10:13;;;;;;;0.90;0.90;;;;;;;;;;6209551;23;20570;-74
2022/12/15 16:12:47;;;;;;;0.90;0.90;;;;;;;;;;6208886;22;20165;-74
2022/12/15 16:15:15;;;;;;;0.90;0.90;;;;;;;;;;6209782;23;20210;-75
2022/12/15 16:17:41;;;;;;;0.90;0.90;;;;;;;;;;6209219;23;20553;-73
2022/12/15 16:20:08;;;;;;;0.80;0.80;;;;;;;;;;6209908;23;20147;-75
2022/12/15 16:22:34;;;;;;;0.90;0.90;;;;;;;;;;6208846;22;20155;-75
2022/12/15 16:25:00;;;;;;;0.90;0.90;;;;;;;;;;6209581;23;20185;-75
2022/12/15 16:27:26;;;;;;;0.90;0.90;;;;;;;;;;6211515;23;20155;-76
2022/12/15 16:29:52;;;;;;;0.90;0.90;;;;;;;;;;6209381;23;20155;-75
2022/12/15 16:32:18;;;;;;;0.87;0.87;;;;;;;;;;6208460;23;20166;-74
2022/12/15 16:34:44;;;;;;;0.80;0.80;;;;;;;;;;6209804;22;20185;-74
2022/12/15 16:37:20;;;;;;;0.90;0.90;;;;;;;;;;6209315;23;20555;-75
2022/12/15 16:39:46;;;;;;;1.00;1.00;;;;;;;;;;6210279;23;20184;-76
2022/12/15 16:42:12;;;;;;;0.90;0.90;;;;;;;;;;6208824;23;20155;-75
2022/12/15 16:44:38;;;;;;;0.90;0.90;;;;;;;;;;6209315;22;20172;-74
2022/12/15 16:47:03;;;;;;;0.80;0.80;;;;;;;;;;6209486;23;20170;-75
2022/12/15 16:49:29;;;;;;;0.90;0.90;;;;;;;;;;6209712;23;20147;-74
2022/12/15 16:51:55;;;;;;;0.90;0.90;;;;;;;;;;6209487;23;20615;-75
2022/12/15 16:54:22;;;;;;;0.90;0.90;;;;;;;;;;6209072;22;20197;-73
2022/12/15 16:56:48;;;;;;;0.90;0.90;;;;;;;;;;6209521;23;20187;-74
2022/12/15 16:59:16;;;;;;;0.80;0.80;;;;;;;;;;6209363;23;20594;-74
2022/12/15 17:01:42;;;;;;;1.00;1.00;;;;;;;;;;6209259;23;20223;-76
2022/12/15 17:04:08;;;;;;;0.90;0.90;;;;;;;;;;6207037;22;20179;-76
2022/12/15 17:06:34;;;;;;;0.90;0.90;;;;;;;;;;6206151;23;20159;-74
2022/12/15 17:09:00;;;;;;;0.80;0.80;;;;;;;;;;6208107;23;20175;-74
2022/12/15 17:11:27;;;;;;;0.87;0.87;;;;;;;;;;6209528;23;20174;-75
2022/12/15 17:13:55;;;;;;;0.83;0.83;;;;;;;;;;6208708;22;20240;-75
2022/12/15 17:16:22;;;;;;;0.90;0.90;;;;;;;;;;6209549;23;20155;-75
2022/12/15 17:18:48;;;;;;;0.80;0.80;;;;;;;;;;6209023;23;20650;-76
2022/12/15 17:21:16;;;;;;;0.80;0.80;;;;;;;;;;6209540;23;20151;-75